createdAt,value
2023-04-09T00:00:45.392Z,11.73
2023-04-09T00:03:47.752Z,11.00
2023-04-09T00:06:50.090Z,12.20
2023-04-09T00:09:52.291Z,12.15
2023-04-09T00:12:54.473Z,15.13
2023-04-09T00:15:56.873Z,14.35
2023-04-09T00:18:59.253Z,12.32
2023-04-09T00:22:01.620Z,11.40
2023-04-09T00:25:04.149Z,11.73
2023-04-09T00:28:06.740Z,12.48
2023-04-09T00:31:10.073Z,14.23
2023-04-09T00:34:12.379Z,13.68
2023-04-09T00:37:14.828Z,13.80
2023-04-09T00:40:17.191Z,11.73
2023-04-09T00:43:19.643Z,12.73
2023-04-09T00:46:21.988Z,11.57
2023-04-09T00:49:26.587Z,11.27
2023-04-09T00:52:30.857Z,11.43
2023-04-09T00:55:34.350Z,11.73
2023-04-09T00:58:37.123Z,12.75
2023-04-09T01:01:39.504Z,12.63
2023-04-09T01:04:43.633Z,11.73
2023-04-09T01:08:00.618Z,12.00
2023-04-09T01:11:20.321Z,12.18
2023-04-09T01:14:49.677Z,16.58
2023-04-09T01:18:03.487Z,11.68
2023-04-09T01:21:10.753Z,12.45
2023-04-09T01:24:27.838Z,13.05
2023-04-09T01:27:39.728Z,12.55
2023-04-09T01:30:47.520Z,13.27
2023-04-09T01:33:49.868Z,12.05
2023-04-09T01:37:00.088Z,10.52
2023-04-09T01:43:08.100Z,9.82
2023-04-09T01:46:12.378Z,10.07
2023-04-09T01:49:15.567Z,13.40
2023-04-09T01:52:17.853Z,10.55
2023-04-09T01:55:20.160Z,10.23
2023-04-09T01:58:22.654Z,11.68
2023-04-09T02:01:35.797Z,11.35
2023-04-09T02:04:41.618Z,12.10
2023-04-09T02:07:47.813Z,10.85
2023-04-09T02:10:55.711Z,9.15
2023-04-09T02:13:58.962Z,10.82
2023-04-09T02:17:02.258Z,11.35
2023-04-09T02:20:04.848Z,10.45
2023-04-09T02:23:07.036Z,11.50
2023-04-09T02:26:09.399Z,9.35
2023-04-09T02:29:12.046Z,9.88
2023-04-09T02:32:14.333Z,10.60
2023-04-09T02:35:16.657Z,10.57
2023-04-09T02:38:19.444Z,11.90
2023-04-09T02:41:21.949Z,8.82
2023-04-09T02:44:24.260Z,8.82
2023-04-09T02:47:27.501Z,10.15
2023-04-09T02:50:29.705Z,10.98
2023-04-09T02:53:32.112Z,9.98
2023-04-09T02:56:34.394Z,10.07
2023-04-09T02:59:39.078Z,9.63
2023-04-09T03:02:41.712Z,9.85
2023-04-09T03:05:44.648Z,10.38
2023-04-09T03:08:46.927Z,10.57
2023-04-09T03:11:49.086Z,9.15
2023-04-09T03:14:51.549Z,11.15
2023-04-09T03:17:53.808Z,10.25
2023-04-09T03:20:56.672Z,9.15
2023-04-09T03:23:59.300Z,7.97
2023-04-09T03:27:01.717Z,9.93
2023-04-09T03:30:06.084Z,8.85
2023-04-09T03:33:17.833Z,9.15
2023-04-09T03:36:28.236Z,9.02
2023-04-09T03:39:38.565Z,9.05
2023-04-09T03:42:43.462Z,7.97
2023-04-09T03:45:48.213Z,8.13
2023-04-09T03:49:00.912Z,9.77
2023-04-09T03:52:11.948Z,10.75
2023-04-09T03:55:17.963Z,8.18
2023-04-09T03:58:21.121Z,7.78
2023-04-09T04:01:23.515Z,10.00
2023-04-09T04:04:33.019Z,7.80
2023-04-09T04:07:35.659Z,8.75
2023-04-09T04:10:43.557Z,14.23
2023-04-09T04:13:47.760Z,8.13
2023-04-09T04:16:50.230Z,10.73
2023-04-09T04:19:56.038Z,8.88
2023-04-09T04:22:59.684Z,8.20
2023-04-09T04:26:02.578Z,8.07
2023-04-09T04:29:09.597Z,7.47
2023-04-09T04:32:27.207Z,9.15
2023-04-09T04:35:30.543Z,11.48
2023-04-09T04:38:35.801Z,7.90
2023-04-09T04:41:41.944Z,7.78
2023-04-09T04:45:05.058Z,7.82
2023-04-09T04:48:19.264Z,8.38
2023-04-09T04:51:21.787Z,9.70
2023-04-09T04:54:36.057Z,8.63
2023-04-09T04:57:38.380Z,9.40
2023-04-09T05:00:40.977Z,7.35
2023-04-09T05:03:43.762Z,7.68
2023-04-09T05:07:00.737Z,7.35
2023-04-09T05:10:03.877Z,9.23
2023-04-09T05:13:12.219Z,8.43
2023-04-09T05:16:18.849Z,6.72
2023-04-09T05:19:26.190Z,7.82
2023-04-09T05:22:34.471Z,7.82
2023-04-09T05:25:36.898Z,9.18
2023-04-09T05:28:39.458Z,6.38
2023-04-09T05:31:47.926Z,7.50
2023-04-09T05:35:00.353Z,8.43
2023-04-09T05:38:04.086Z,7.15
2023-04-09T05:41:06.603Z,10.77
2023-04-09T05:44:13.731Z,7.68
2023-04-09T05:47:16.033Z,8.75
2023-04-09T05:50:38.172Z,8.40
2023-04-09T05:53:50.551Z,8.70
2023-04-09T05:56:52.950Z,7.80
2023-04-09T05:59:56.473Z,8.55
2023-04-09T06:02:58.869Z,8.38
2023-04-09T06:06:02.866Z,8.18
2023-04-09T06:09:05.338Z,7.63
2023-04-09T06:12:07.723Z,9.13
2023-04-09T06:15:10.481Z,7.90
2023-04-09T06:18:12.747Z,9.05
2023-04-09T06:21:14.919Z,7.97
2023-04-09T06:24:17.308Z,8.68
2023-04-09T06:27:19.477Z,9.93
2023-04-09T06:30:22.119Z,7.05
2023-04-09T06:33:25.237Z,7.03
2023-04-09T06:36:28.084Z,9.30
2023-04-09T06:39:30.303Z,5.05
2023-04-09T06:42:32.580Z,6.00
2023-04-09T06:45:46.131Z,6.15
2023-04-09T06:48:48.366Z,5.85
2023-04-09T06:51:53.837Z,5.18
2023-04-09T06:54:56.173Z,6.53
2023-04-09T06:57:58.356Z,6.35
2023-04-09T07:01:01.284Z,5.80
2023-04-09T07:04:04.017Z,5.82
2023-04-09T07:07:06.573Z,5.38
2023-04-09T07:10:09.446Z,5.97
2023-04-09T07:13:11.916Z,5.25
2023-04-09T07:16:14.212Z,4.75
2023-04-09T07:19:16.528Z,4.82
2023-04-09T07:22:19.220Z,4.50
2023-04-09T07:25:21.772Z,5.95
2023-04-09T07:28:24.041Z,5.25
2023-04-09T07:31:26.521Z,4.70
2023-04-09T07:34:28.944Z,4.97
2023-04-09T07:37:31.469Z,4.53
2023-04-09T07:40:37.068Z,5.07
2023-04-09T07:43:39.353Z,4.85
2023-04-09T07:46:42.771Z,3.90
2023-04-09T07:49:45.036Z,4.10
2023-04-09T07:52:47.564Z,4.10
2023-04-09T07:55:51.766Z,4.20
2023-04-09T07:58:54.161Z,3.95
2023-04-09T08:01:56.629Z,3.75
2023-04-09T08:04:59.400Z,3.58
2023-04-09T08:08:01.968Z,4.07
2023-04-09T08:11:04.345Z,4.10
2023-04-09T08:14:06.763Z,3.47
2023-04-09T08:17:09.075Z,4.20
2023-04-09T08:20:12.032Z,4.32
2023-04-09T08:23:14.633Z,3.47
2023-04-09T08:26:16.866Z,4.38
2023-04-09T08:29:19.247Z,3.50
2023-04-09T08:32:21.881Z,3.10
2023-04-09T08:35:24.171Z,3.53
2023-04-09T08:38:26.433Z,4.25
2023-04-09T08:41:29.761Z,3.70
2023-04-09T08:44:31.991Z,3.53
2023-04-09T08:47:36.783Z,3.60
2023-04-09T08:50:39.251Z,3.35
2023-04-09T08:53:48.006Z,3.17
2023-04-09T08:56:50.182Z,3.60
2023-04-09T08:59:52.465Z,3.63
2023-04-09T09:03:08.647Z,3.22
2023-04-09T09:06:22.705Z,3.47
2023-04-09T09:09:26.977Z,3.45
2023-04-09T09:12:32.216Z,3.97
2023-04-09T09:15:34.610Z,3.70
2023-04-09T09:18:40.744Z,4.10
2023-04-09T09:21:43.510Z,3.30
2023-04-09T09:24:50.273Z,3.40
2023-04-09T09:27:54.021Z,4.13
2023-04-09T09:43:23.658Z,3.60
2023-04-09T09:46:26.861Z,3.55
2023-04-09T09:49:29.248Z,3.15
2023-04-09T10:04:40.886Z,3.40
2023-04-09T10:07:45.214Z,3.20
2023-04-09T10:10:48.816Z,3.08
2023-04-09T10:13:59.351Z,3.40
2023-04-09T10:17:04.204Z,3.20
2023-04-09T10:20:14.571Z,3.63
2023-04-09T10:23:27.540Z,3.13
2023-04-09T10:26:31.211Z,3.63
2023-04-09T10:29:33.511Z,3.38
2023-04-09T10:32:36.484Z,2.53
2023-04-09T10:35:39.277Z,3.35
2023-04-09T10:38:47.122Z,3.30
2023-04-09T10:41:50.644Z,3.90
2023-04-09T10:45:10.754Z,3.35
2023-04-09T10:51:19.835Z,3.50
2023-04-09T10:54:34.174Z,3.60
2023-04-09T10:57:36.687Z,5.25
2023-04-09T11:00:41.034Z,3.58
2023-04-09T11:03:46.965Z,4.18
2023-04-09T11:06:50.823Z,3.60
2023-04-09T11:09:53.808Z,4.55
2023-04-09T11:12:56.029Z,3.00
2023-04-09T11:16:00.457Z,4.25
2023-04-09T11:19:03.143Z,3.72
2023-04-09T11:22:07.228Z,3.75
2023-04-09T11:25:09.775Z,3.85
2023-04-09T11:28:12.022Z,3.70
2023-04-09T11:31:14.256Z,3.60
2023-04-09T11:34:17.455Z,3.80
2023-04-09T11:37:19.712Z,3.60
2023-04-09T11:40:23.922Z,4.55
2023-04-09T11:43:26.174Z,3.70
2023-04-09T11:46:28.823Z,3.80
2023-04-09T11:49:31.496Z,4.03
2023-04-09T11:52:35.991Z,4.78
2023-04-09T11:55:38.289Z,4.32
2023-04-09T11:58:47.188Z,4.00
2023-04-09T12:01:51.620Z,4.63
2023-04-09T12:04:54.025Z,4.10
2023-04-09T12:08:08.539Z,5.35
2023-04-09T12:11:16.493Z,4.50
2023-04-09T12:14:21.700Z,4.57
2023-04-09T12:17:24.054Z,3.83
2023-04-09T12:20:36.867Z,3.80
2023-04-09T12:23:39.253Z,3.90
2023-04-09T12:26:41.578Z,4.07
2023-04-09T12:29:43.853Z,3.95
2023-04-09T12:32:46.765Z,3.83
2023-04-09T12:35:49.065Z,4.40
2023-04-09T12:38:51.945Z,4.20
2023-04-09T12:41:54.703Z,5.10
2023-04-09T12:44:57.193Z,4.53
2023-04-09T12:47:59.705Z,3.97
2023-04-09T12:51:02.076Z,4.60
2023-04-09T12:54:04.372Z,5.30
2023-04-09T12:57:07.072Z,6.65
2023-04-09T13:00:09.988Z,4.60
2023-04-09T13:03:12.421Z,4.10
2023-04-09T13:06:15.106Z,4.05
2023-04-09T13:09:17.360Z,4.13
2023-04-09T13:12:21.711Z,4.47
2023-04-09T13:15:24.032Z,4.10
2023-04-09T13:18:26.431Z,4.82
2023-04-09T13:21:28.879Z,4.72
2023-04-09T13:24:31.553Z,4.15
2023-04-09T13:27:33.778Z,4.68
2023-04-09T13:30:36.192Z,4.10
2023-04-09T13:33:38.495Z,3.90
2023-04-09T13:36:40.784Z,4.07
2023-04-09T13:39:44.349Z,3.72
2023-04-09T13:42:46.789Z,4.55
2023-04-09T13:45:50.001Z,3.50
2023-04-09T13:48:52.684Z,4.78
2023-04-09T13:51:55.994Z,3.85
2023-04-09T13:54:58.239Z,4.97
2023-04-09T13:58:00.626Z,3.92
2023-04-09T14:01:03.245Z,3.95
2023-04-09T14:04:10.273Z,3.60
2023-04-09T14:07:12.647Z,5.18
2023-04-09T14:10:14.969Z,4.00
2023-04-09T14:13:17.280Z,3.72
2023-04-09T14:16:19.941Z,4.32
2023-04-09T14:19:23.031Z,3.92
2023-04-09T14:22:26.726Z,4.13
2023-04-09T14:25:28.960Z,4.05
2023-04-09T14:28:32.349Z,3.47
2023-04-09T14:31:34.647Z,4.30
2023-04-09T14:34:36.957Z,4.13
2023-04-09T14:37:41.136Z,3.75
2023-04-09T14:40:43.793Z,3.72
2023-04-09T14:43:46.040Z,4.22
2023-04-09T14:46:48.284Z,3.58
2023-04-09T14:49:50.510Z,3.85
2023-04-09T14:52:52.976Z,3.97
2023-04-09T14:55:55.322Z,3.72
2023-04-09T14:58:57.637Z,4.82
2023-04-09T15:02:00.039Z,3.38
2023-04-09T15:05:04.065Z,3.72
2023-04-09T15:08:06.472Z,3.83
2023-04-09T15:11:10.012Z,3.38
2023-04-09T15:14:12.325Z,3.92
2023-04-09T15:17:14.512Z,3.70
2023-04-09T15:20:16.819Z,4.00
2023-04-09T15:23:19.025Z,4.10
2023-04-09T15:26:21.376Z,3.72
2023-04-09T15:29:23.581Z,4.72
2023-04-09T15:32:26.068Z,3.90
2023-04-09T15:35:29.587Z,3.83
2023-04-09T15:38:32.191Z,4.72
2023-04-09T15:41:34.706Z,3.75
2023-04-09T15:44:36.993Z,4.10
2023-04-09T15:47:39.263Z,3.40
2023-04-09T15:50:41.568Z,3.95
2023-04-09T15:53:43.820Z,3.90
2023-04-09T15:56:46.185Z,3.70
2023-04-09T15:59:48.648Z,3.10
2023-04-09T16:02:51.017Z,4.18
2023-04-09T16:05:53.304Z,3.35
2023-04-09T16:08:56.815Z,3.38
2023-04-09T16:11:59.064Z,3.45
2023-04-09T16:15:01.740Z,3.47
2023-04-09T16:18:04.229Z,4.22
2023-04-09T16:21:06.666Z,3.28
2023-04-09T16:24:08.943Z,3.55
2023-04-09T16:27:13.197Z,3.13
2023-04-09T16:30:15.586Z,3.50
2023-04-09T16:33:18.132Z,3.85
2023-04-09T16:36:20.467Z,2.63
2023-04-09T16:39:22.760Z,3.35
2023-04-09T16:42:26.990Z,3.63
2023-04-09T16:45:30.030Z,3.53
2023-04-09T16:48:32.693Z,3.70
2023-04-09T16:51:35.273Z,3.30
2023-04-09T16:54:37.549Z,2.97
2023-04-09T16:57:40.260Z,3.38
2023-04-09T17:00:44.188Z,2.80
2023-04-09T17:03:52.111Z,2.80
2023-04-09T17:06:54.398Z,3.08
2023-04-09T17:09:57.362Z,2.67
2023-04-09T17:12:59.638Z,2.67
2023-04-09T17:16:03.017Z,3.15
2023-04-09T17:19:05.388Z,3.00
2023-04-09T17:22:07.692Z,2.92
2023-04-09T17:25:10.140Z,2.88
2023-04-09T17:28:12.307Z,3.00
2023-04-09T17:31:16.198Z,2.92
2023-04-09T17:34:18.783Z,2.85
2023-04-09T17:37:21.504Z,3.15
2023-04-09T17:40:23.884Z,2.90
2023-04-09T17:43:26.433Z,3.13
2023-04-09T17:46:29.063Z,2.78
2023-04-09T17:49:32.468Z,3.15
2023-04-09T17:52:37.485Z,3.35
2023-04-09T17:55:45.025Z,2.80
2023-04-09T17:58:47.316Z,2.78
2023-04-09T18:01:50.523Z,2.97
2023-04-09T18:04:53.389Z,4.07
2023-04-09T18:07:56.677Z,4.32
2023-04-09T18:11:12.219Z,3.25
2023-04-09T18:14:15.726Z,3.42
2023-04-09T18:17:18.121Z,3.70
2023-04-09T18:20:20.656Z,3.30
2023-04-09T18:23:22.921Z,3.75
2023-04-09T18:26:25.728Z,3.78
2023-04-09T18:29:28.933Z,4.05
2023-04-09T18:32:31.385Z,3.13
2023-04-09T18:35:33.761Z,3.25
2023-04-09T18:38:37.134Z,4.93
2023-04-09T18:41:39.577Z,3.83
2023-04-09T18:44:41.833Z,3.30
2023-04-09T18:47:44.214Z,3.63
2023-04-09T18:50:47.187Z,3.72
2023-04-09T18:53:53.164Z,3.47
2023-04-09T18:56:57.395Z,3.63
2023-04-09T19:00:00.883Z,3.50
2023-04-09T19:03:03.422Z,3.95
2023-04-09T19:06:18.246Z,4.60
2023-04-09T19:09:20.762Z,3.42
2023-04-09T19:12:24.076Z,4.25
2023-04-09T19:15:28.594Z,5.07
2023-04-09T19:18:31.659Z,4.40
2023-04-09T19:21:33.887Z,3.38
2023-04-09T19:24:36.320Z,3.40
2023-04-09T19:27:39.365Z,3.75
2023-04-09T19:30:41.588Z,4.47
2023-04-09T19:33:43.853Z,4.68
2023-04-09T19:36:46.478Z,4.22
2023-04-09T19:39:49.351Z,4.57
2023-04-09T19:42:51.697Z,3.97
2023-04-09T19:45:55.008Z,3.67
2023-04-09T19:48:57.359Z,3.80
2023-04-09T19:51:59.681Z,3.97
2023-04-09T19:55:02.145Z,4.63
2023-04-09T19:58:05.875Z,3.70
2023-04-09T20:01:08.239Z,4.53
2023-04-09T20:04:10.519Z,3.92
2023-04-09T20:07:12.997Z,4.60
2023-04-09T20:10:15.856Z,4.80
2023-04-09T20:13:18.353Z,4.13
2023-04-09T20:16:20.818Z,4.90
2023-04-09T20:19:23.421Z,4.60
2023-04-09T20:22:25.756Z,4.75
2023-04-09T20:25:34.570Z,4.65
2023-04-09T20:28:37.031Z,4.70
2023-04-09T20:31:39.333Z,4.63
2023-04-09T20:34:41.605Z,4.18
2023-04-09T20:37:44.373Z,4.30
2023-04-09T20:40:47.140Z,5.25
2023-04-09T20:43:49.445Z,4.32
2023-04-09T20:46:51.670Z,4.72
2023-04-09T20:49:55.791Z,4.43
2023-04-09T20:52:59.147Z,4.28
2023-04-09T20:56:02.280Z,4.30
2023-04-09T20:59:04.614Z,4.30
2023-04-09T21:02:07.297Z,4.25
2023-04-09T21:05:21.800Z,4.20
2023-04-09T21:08:26.187Z,4.40
2023-04-09T21:11:30.706Z,4.40
2023-04-09T21:14:33.312Z,4.70
2023-04-09T21:17:35.761Z,4.28
2023-04-09T21:20:42.458Z,4.00
2023-04-09T21:23:44.838Z,3.67
2023-04-09T21:26:51.611Z,3.92
2023-04-09T21:29:54.825Z,4.35
2023-04-09T21:32:57.119Z,4.40
2023-04-09T21:35:59.493Z,4.30
2023-04-09T21:39:01.829Z,4.38
2023-04-09T21:42:04.610Z,5.15
2023-04-09T21:45:08.003Z,5.38
2023-04-09T21:48:10.303Z,5.57
2023-04-09T21:51:12.650Z,4.50
2023-04-09T21:54:14.982Z,3.67
2023-04-09T21:57:17.277Z,4.78
2023-04-09T22:00:19.693Z,4.57
2023-04-09T22:03:22.742Z,4.13
2023-04-09T22:06:25.182Z,4.22
2023-04-09T22:09:27.682Z,4.57
2023-04-09T22:12:29.987Z,3.88
2023-04-09T22:15:32.200Z,5.60
2023-04-09T22:18:37.341Z,5.00
2023-04-09T22:21:40.324Z,4.75
2023-04-09T22:24:43.736Z,4.50
2023-04-09T22:27:51.459Z,4.43
2023-04-09T22:30:53.799Z,4.70
2023-04-09T22:33:57.544Z,3.97
2023-04-09T22:37:00.975Z,4.50
2023-04-09T22:40:03.319Z,4.88
2023-04-09T22:43:05.938Z,4.82
2023-04-09T22:46:08.346Z,4.05
2023-04-09T22:49:11.706Z,4.75
2023-04-09T22:52:14.200Z,5.20
2023-04-09T22:55:16.798Z,6.25
2023-04-09T22:58:19.422Z,5.50
2023-04-09T23:01:22.390Z,6.30
2023-04-09T23:04:25.520Z,4.70
2023-04-09T23:07:28.518Z,4.30
2023-04-09T23:10:31.103Z,5.25
2023-04-09T23:13:33.399Z,4.97
2023-04-09T23:16:35.949Z,4.60
2023-04-09T23:19:38.210Z,4.75
2023-04-09T23:22:41.244Z,4.50
2023-04-09T23:25:43.491Z,5.07
2023-04-09T23:28:45.842Z,4.63
2023-04-09T23:31:48.072Z,6.07
2023-04-09T23:34:51.322Z,5.03
2023-04-09T23:37:53.581Z,4.93
2023-04-09T23:40:56.033Z,5.30
2023-04-09T23:43:58.298Z,5.45
2023-04-09T23:47:01.628Z,4.95
2023-04-09T23:50:08.579Z,4.63
2023-04-09T23:53:11.132Z,4.78
2023-04-09T23:56:16.412Z,5.05
2023-04-09T23:59:18.711Z,5.15
